sensor_id;sensor_type;location;lat;lon;timestamp;P1;durP1;ratioP1;P2;durP2;ratioP2
66163;SDS011;52962;51.088;3.096;2023-05-19T00:02:36;4.47;;;2.40;;
66163;SDS011;52962;51.088;3.096;2023-05-19T00:05:07;4.13;;;2.20;;
66163;SDS011;52962;51.088;3.096;2023-05-19T00:07:36;5.15;;;2.20;;
66163;SDS011;52962;51.088;3.096;2023-05-19T00:10:05;3.67;;;2.20;;
66163;SDS011;52962;51.088;3.096;2023-05-19T00:12:33;2.15;;;1.95;;
66163;SDS011;52962;51.088;3.096;2023-05-19T00:15:02;2.35;;;2.15;;
66163;SDS011;52962;51.088;3.096;2023-05-19T00:17:31;2.97;;;2.38;;
66163;SDS011;52962;51.088;3.096;2023-05-19T00:19:59;5.35;;;1.90;;
66163;SDS011;52962;51.088;3.096;2023-05-19T00:22:34;4.72;;;2.33;;
66163;SDS011;52962;51.088;3.096;2023-05-19T00:25:02;3.15;;;2.47;;
66163;SDS011;52962;51.088;3.096;2023-05-19T00:27:31;6.47;;;2.70;;
66163;SDS011;52962;51.088;3.096;2023-05-19T00:29:59;4.70;;;2.63;;
66163;SDS011;52962;51.088;3.096;2023-05-19T00:32:27;3.80;;;2.25;;
66163;SDS011;52962;51.088;3.096;2023-05-19T00:34:55;4.28;;;2.35;;
66163;SDS011;52962;51.088;3.096;2023-05-19T00:37:23;5.00;;;2.58;;
66163;SDS011;52962;51.088;3.096;2023-05-19T00:39:52;3.70;;;2.05;;
66163;SDS011;52962;51.088;3.096;2023-05-19T00:42:20;2.83;;;2.28;;
66163;SDS011;52962;51.088;3.096;2023-05-19T00:44:48;2.50;;;2.22;;
66163;SDS011;52962;51.088;3.096;2023-05-19T00:47:16;2.47;;;2.13;;
66163;SDS011;52962;51.088;3.096;2023-05-19T00:49:44;2.95;;;2.17;;
66163;SDS011;52962;51.088;3.096;2023-05-19T00:52:12;6.15;;;3.00;;
66163;SDS011;52962;51.088;3.096;2023-05-19T00:54:40;2.28;;;1.58;;
66163;SDS011;52962;51.088;3.096;2023-05-19T00:57:09;5.45;;;2.50;;
66163;SDS011;52962;51.088;3.096;2023-05-19T00:59:37;4.45;;;2.35;;
66163;SDS011;52962;51.088;3.096;2023-05-19T01:02:05;6.55;;;2.58;;
66163;SDS011;52962;51.088;3.096;2023-05-19T01:04:33;5.47;;;2.97;;
66163;SDS011;52962;51.088;3.096;2023-05-19T01:07:03;4.70;;;2.60;;
66163;SDS011;52962;51.088;3.096;2023-05-19T01:09:31;5.05;;;2.63;;
66163;SDS011;52962;51.088;3.096;2023-05-19T01:11:59;4.07;;;3.67;;
66163;SDS011;52962;51.088;3.096;2023-05-19T01:14:28;5.07;;;2.72;;
66163;SDS011;52962;51.088;3.096;2023-05-19T01:17:00;3.28;;;2.70;;
66163;SDS011;52962;51.088;3.096;2023-05-19T01:19:36;5.22;;;2.55;;
66163;SDS011;52962;51.088;3.096;2023-05-19T01:24:55;3.80;;;2.38;;
66163;SDS011;52962;51.088;3.096;2023-05-19T01:27:46;3.80;;;2.72;;
66163;SDS011;52962;51.088;3.096;2023-05-19T01:30:24;5.30;;;2.42;;
66163;SDS011;52962;51.088;3.096;2023-05-19T01:32:53;5.30;;;3.42;;
66163;SDS011;52962;51.088;3.096;2023-05-19T01:35:23;5.40;;;2.88;;
66163;SDS011;52962;51.088;3.096;2023-05-19T01:37:54;3.45;;;2.40;;
66163;SDS011;52962;51.088;3.096;2023-05-19T01:40:22;6.20;;;2.97;;
66163;SDS011;52962;51.088;3.096;2023-05-19T01:42:51;3.03;;;2.33;;
66163;SDS011;52962;51.088;3.096;2023-05-19T01:45:25;2.42;;;2.20;;
66163;SDS011;52962;51.088;3.096;2023-05-19T01:47:56;4.53;;;3.10;;
66163;SDS011;52962;51.088;3.096;2023-05-19T01:50:24;4.72;;;2.90;;
66163;SDS011;52962;51.088;3.096;2023-05-19T01:52:52;2.97;;;2.70;;
66163;SDS011;52962;51.088;3.096;2023-05-19T01:55:21;4.90;;;2.88;;
66163;SDS011;52962;51.088;3.096;2023-05-19T02:00:18;5.82;;;2.40;;
66163;SDS011;52962;51.088;3.096;2023-05-19T02:02:54;3.22;;;2.90;;
66163;SDS011;52962;51.088;3.096;2023-05-19T02:05:26;4.40;;;2.85;;
66163;SDS011;52962;51.088;3.096;2023-05-19T02:08:00;3.00;;;2.67;;
66163;SDS011;52962;51.088;3.096;2023-05-19T02:10:29;4.35;;;3.35;;
66163;SDS011;52962;51.088;3.096;2023-05-19T02:12:59;2.30;;;2.15;;
66163;SDS011;52962;51.088;3.096;2023-05-19T02:15:29;3.03;;;2.70;;
66163;SDS011;52962;51.088;3.096;2023-05-19T02:18:02;3.58;;;2.63;;
66163;SDS011;52962;51.088;3.096;2023-05-19T02:20:31;2.95;;;2.63;;
66163;SDS011;52962;51.088;3.096;2023-05-19T02:22:59;4.32;;;2.72;;
66163;SDS011;52962;51.088;3.096;2023-05-19T02:25:27;4.95;;;3.00;;
66163;SDS011;52962;51.088;3.096;2023-05-19T02:27:56;4.00;;;3.22;;
66163;SDS011;52962;51.088;3.096;2023-05-19T02:30:27;4.32;;;3.92;;
66163;SDS011;52962;51.088;3.096;2023-05-19T02:32:59;4.03;;;3.72;;
66163;SDS011;52962;51.088;3.096;2023-05-19T02:35:28;4.28;;;3.08;;
66163;SDS011;52962;51.088;3.096;2023-05-19T02:37:56;3.50;;;2.72;;
66163;SDS011;52962;51.088;3.096;2023-05-19T02:40:24;5.03;;;3.90;;
66163;SDS011;52962;51.088;3.096;2023-05-19T02:42:52;3.67;;;2.88;;
66163;SDS011;52962;51.088;3.096;2023-05-19T02:45:20;3.78;;;3.00;;
66163;SDS011;52962;51.088;3.096;2023-05-19T02:47:47;6.50;;;3.58;;
66163;SDS011;52962;51.088;3.096;2023-05-19T02:50:15;4.72;;;3.47;;
66163;SDS011;52962;51.088;3.096;2023-05-19T02:52:45;7.47;;;3.30;;
66163;SDS011;52962;51.088;3.096;2023-05-19T02:55:13;5.40;;;3.78;;
66163;SDS011;52962;51.088;3.096;2023-05-19T02:57:42;3.45;;;2.42;;
66163;SDS011;52962;51.088;3.096;2023-05-19T03:00:11;4.75;;;3.40;;
66163;SDS011;52962;51.088;3.096;2023-05-19T03:02:39;5.20;;;3.45;;
66163;SDS011;52962;51.088;3.096;2023-05-19T03:05:09;5.93;;;2.78;;
66163;SDS011;52962;51.088;3.096;2023-05-19T03:07:37;4.03;;;3.60;;
66163;SDS011;52962;51.088;3.096;2023-05-19T03:10:07;3.85;;;3.20;;
66163;SDS011;52962;51.088;3.096;2023-05-19T03:12:36;3.95;;;3.35;;
66163;SDS011;52962;51.088;3.096;2023-05-19T03:15:04;4.22;;;3.78;;
66163;SDS011;52962;51.088;3.096;2023-05-19T03:17:32;2.88;;;2.58;;
66163;SDS011;52962;51.088;3.096;2023-05-19T03:20:02;5.00;;;4.28;;
66163;SDS011;52962;51.088;3.096;2023-05-19T03:22:31;6.63;;;4.15;;
66163;SDS011;52962;51.088;3.096;2023-05-19T03:27:29;5.88;;;4.05;;
66163;SDS011;52962;51.088;3.096;2023-05-19T03:29:57;4.95;;;3.70;;
66163;SDS011;52962;51.088;3.096;2023-05-19T03:32:25;4.50;;;3.58;;
66163;SDS011;52962;51.088;3.096;2023-05-19T03:34:53;4.22;;;3.83;;
66163;SDS011;52962;51.088;3.096;2023-05-19T03:37:21;4.03;;;3.60;;
66163;SDS011;52962;51.088;3.096;2023-05-19T03:39:49;3.95;;;3.53;;
66163;SDS011;52962;51.088;3.096;2023-05-19T03:42:17;4.50;;;3.42;;
66163;SDS011;52962;51.088;3.096;2023-05-19T03:44:46;5.95;;;3.30;;
66163;SDS011;52962;51.088;3.096;2023-05-19T03:47:15;6.10;;;3.80;;
66163;SDS011;52962;51.088;3.096;2023-05-19T03:50:04;6.70;;;3.97;;
66163;SDS011;52962;51.088;3.096;2023-05-19T03:52:58;3.25;;;2.95;;
66163;SDS011;52962;51.088;3.096;2023-05-19T03:55:29;5.65;;;4.60;;
66163;SDS011;52962;51.088;3.096;2023-05-19T03:57:57;5.20;;;4.57;;
66163;SDS011;52962;51.088;3.096;2023-05-19T04:00:26;7.35;;;4.60;;
66163;SDS011;52962;51.088;3.096;2023-05-19T04:02:54;6.10;;;4.60;;
66163;SDS011;52962;51.088;3.096;2023-05-19T04:05:22;6.60;;;3.92;;
66163;SDS011;52962;51.088;3.096;2023-05-19T04:07:52;6.43;;;4.97;;
66163;SDS011;52962;51.088;3.096;2023-05-19T04:10:20;5.78;;;4.15;;
66163;SDS011;52962;51.088;3.096;2023-05-19T04:12:48;4.65;;;4.07;;
66163;SDS011;52962;51.088;3.096;2023-05-19T04:15:16;6.78;;;3.97;;
66163;SDS011;52962;51.088;3.096;2023-05-19T04:17:45;5.55;;;4.10;;
66163;SDS011;52962;51.088;3.096;2023-05-19T04:20:13;6.05;;;3.58;;
66163;SDS011;52962;51.088;3.096;2023-05-19T04:22:41;4.45;;;3.92;;
66163;SDS011;52962;51.088;3.096;2023-05-19T04:25:09;4.80;;;3.92;;
66163;SDS011;52962;51.088;3.096;2023-05-19T04:27:38;5.05;;;3.83;;
66163;SDS011;52962;51.088;3.096;2023-05-19T04:30:07;4.57;;;3.80;;
66163;SDS011;52962;51.088;3.096;2023-05-19T04:32:35;4.05;;;3.45;;
66163;SDS011;52962;51.088;3.096;2023-05-19T04:35:07;4.68;;;4.18;;
66163;SDS011;52962;51.088;3.096;2023-05-19T04:37:35;4.53;;;3.78;;
66163;SDS011;52962;51.088;3.096;2023-05-19T04:40:07;6.57;;;4.28;;
66163;SDS011;52962;51.088;3.096;2023-05-19T04:42:37;4.85;;;4.07;;
66163;SDS011;52962;51.088;3.096;2023-05-19T04:45:08;6.47;;;4.18;;
66163;SDS011;52962;51.088;3.096;2023-05-19T04:47:40;6.97;;;3.97;;
66163;SDS011;52962;51.088;3.096;2023-05-19T04:50:10;7.03;;;3.45;;
66163;SDS011;52962;51.088;3.096;2023-05-19T04:52:38;4.55;;;3.53;;
66163;SDS011;52962;51.088;3.096;2023-05-19T04:55:07;4.97;;;3.75;;
66163;SDS011;52962;51.088;3.096;2023-05-19T04:57:37;5.20;;;4.30;;
66163;SDS011;52962;51.088;3.096;2023-05-19T05:00:06;5.95;;;5.20;;
66163;SDS011;52962;51.088;3.096;2023-05-19T05:02:48;5.60;;;4.28;;
66163;SDS011;52962;51.088;3.096;2023-05-19T05:05:20;5.85;;;4.70;;
66163;SDS011;52962;51.088;3.096;2023-05-19T05:07:49;4.22;;;3.83;;
66163;SDS011;52962;51.088;3.096;2023-05-19T05:10:21;4.97;;;3.90;;
66163;SDS011;52962;51.088;3.096;2023-05-19T05:12:49;5.60;;;3.85;;
66163;SDS011;52962;51.088;3.096;2023-05-19T05:15:18;7.38;;;4.10;;
66163;SDS011;52962;51.088;3.096;2023-05-19T05:17:48;4.20;;;3.38;;
66163;SDS011;52962;51.088;3.096;2023-05-19T05:20:17;5.35;;;3.83;;
66163;SDS011;52962;51.088;3.096;2023-05-19T05:22:48;4.82;;;3.63;;
66163;SDS011;52962;51.088;3.096;2023-05-19T05:25:17;7.45;;;3.55;;
66163;SDS011;52962;51.088;3.096;2023-05-19T05:27:46;7.03;;;4.15;;
66163;SDS011;52962;51.088;3.096;2023-05-19T05:30:13;5.13;;;3.58;;
66163;SDS011;52962;51.088;3.096;2023-05-19T05:32:41;5.43;;;3.15;;
66163;SDS011;52962;51.088;3.096;2023-05-19T05:35:24;3.83;;;3.28;;
66163;SDS011;52962;51.088;3.096;2023-05-19T05:37:54;4.90;;;3.63;;
66163;SDS011;52962;51.088;3.096;2023-05-19T05:40:22;4.03;;;3.63;;
66163;SDS011;52962;51.088;3.096;2023-05-19T05:42:51;5.20;;;3.15;;
66163;SDS011;52962;51.088;3.096;2023-05-19T05:45:22;3.05;;;2.75;;
66163;SDS011;52962;51.088;3.096;2023-05-19T05:47:50;3.42;;;2.92;;
66163;SDS011;52962;51.088;3.096;2023-05-19T05:50:19;4.03;;;2.55;;
66163;SDS011;52962;51.088;3.096;2023-05-19T05:52:48;2.75;;;2.53;;
66163;SDS011;52962;51.088;3.096;2023-05-19T05:55:20;6.15;;;2.53;;
66163;SDS011;52962;51.088;3.096;2023-05-19T05:57:48;3.80;;;2.63;;
66163;SDS011;52962;51.088;3.096;2023-05-19T06:00:17;2.90;;;2.17;;
66163;SDS011;52962;51.088;3.096;2023-05-19T06:02:51;5.05;;;2.13;;
66163;SDS011;52962;51.088;3.096;2023-05-19T06:05:19;5.95;;;2.20;;
66163;SDS011;52962;51.088;3.096;2023-05-19T06:07:48;3.92;;;2.92;;
66163;SDS011;52962;51.088;3.096;2023-05-19T06:10:22;3.40;;;3.10;;
66163;SDS011;52962;51.088;3.096;2023-05-19T06:12:52;4.22;;;2.33;;
66163;SDS011;52962;51.088;3.096;2023-05-19T06:15:21;3.58;;;2.90;;
66163;SDS011;52962;51.088;3.096;2023-05-19T06:18:10;4.07;;;2.80;;
66163;SDS011;52962;51.088;3.096;2023-05-19T06:20:38;4.10;;;3.20;;
66163;SDS011;52962;51.088;3.096;2023-05-19T06:23:06;3.30;;;2.72;;
66163;SDS011;52962;51.088;3.096;2023-05-19T06:25:35;4.35;;;2.63;;
66163;SDS011;52962;51.088;3.096;2023-05-19T06:28:04;4.38;;;2.47;;
66163;SDS011;52962;51.088;3.096;2023-05-19T06:30:32;10.90;;;2.78;;
66163;SDS011;52962;51.088;3.096;2023-05-19T06:33:11;11.38;;;3.83;;
66163;SDS011;52962;51.088;3.096;2023-05-19T06:35:39;9.70;;;2.55;;
66163;SDS011;52962;51.088;3.096;2023-05-19T06:38:07;7.82;;;2.92;;
66163;SDS011;52962;51.088;3.096;2023-05-19T06:40:36;4.88;;;2.88;;
66163;SDS011;52962;51.088;3.096;2023-05-19T06:43:04;4.32;;;2.83;;
66163;SDS011;52962;51.088;3.096;2023-05-19T06:45:53;2.72;;;2.42;;
66163;SDS011;52962;51.088;3.096;2023-05-19T06:48:23;5.22;;;2.70;;
66163;SDS011;52962;51.088;3.096;2023-05-19T06:53:19;2.90;;;2.67;;
66163;SDS011;52962;51.088;3.096;2023-05-19T06:55:50;3.47;;;3.17;;
66163;SDS011;52962;51.088;3.096;2023-05-19T06:58:28;3.10;;;2.35;;
66163;SDS011;52962;51.088;3.096;2023-05-19T07:00:58;3.50;;;2.65;;
66163;SDS011;52962;51.088;3.096;2023-05-19T07:03:31;6.05;;;2.85;;
66163;SDS011;52962;51.088;3.096;2023-05-19T07:05:59;4.43;;;2.90;;
66163;SDS011;52962;51.088;3.096;2023-05-19T07:08:27;4.82;;;3.67;;
66163;SDS011;52962;51.088;3.096;2023-05-19T07:11:00;4.60;;;3.25;;
66163;SDS011;52962;51.088;3.096;2023-05-19T07:13:28;3.45;;;2.58;;
66163;SDS011;52962;51.088;3.096;2023-05-19T07:15:56;4.38;;;3.15;;
66163;SDS011;52962;51.088;3.096;2023-05-19T07:18:27;3.47;;;2.80;;
66163;SDS011;52962;51.088;3.096;2023-05-19T07:20:57;4.05;;;2.58;;
66163;SDS011;52962;51.088;3.096;2023-05-19T07:25:54;5.45;;;3.00;;
66163;SDS011;52962;51.088;3.096;2023-05-19T07:28:24;4.90;;;2.75;;
66163;SDS011;52962;51.088;3.096;2023-05-19T07:30:52;4.32;;;3.22;;
66163;SDS011;52962;51.088;3.096;2023-05-19T07:33:19;6.30;;;3.22;;
66163;SDS011;52962;51.088;3.096;2023-05-19T07:35:47;3.03;;;2.72;;
66163;SDS011;52962;51.088;3.096;2023-05-19T07:38:15;4.05;;;3.35;;
66163;SDS011;52962;51.088;3.096;2023-05-19T07:40:43;4.32;;;3.08;;
66163;SDS011;52962;51.088;3.096;2023-05-19T07:43:11;6.95;;;3.45;;
66163;SDS011;52962;51.088;3.096;2023-05-19T07:45:40;4.32;;;2.78;;
66163;SDS011;52962;51.088;3.096;2023-05-19T07:48:08;4.93;;;2.95;;
66163;SDS011;52962;51.088;3.096;2023-05-19T07:50:36;4.00;;;2.90;;
66163;SDS011;52962;51.088;3.096;2023-05-19T07:53:04;4.30;;;2.80;;
66163;SDS011;52962;51.088;3.096;2023-05-19T07:55:32;4.03;;;3.20;;
66163;SDS011;52962;51.088;3.096;2023-05-19T07:58:00;6.28;;;3.17;;
66163;SDS011;52962;51.088;3.096;2023-05-19T08:00:28;5.72;;;3.00;;
66163;SDS011;52962;51.088;3.096;2023-05-19T08:02:58;7.05;;;3.10;;
66163;SDS011;52962;51.088;3.096;2023-05-19T08:05:27;4.45;;;2.83;;
66163;SDS011;52962;51.088;3.096;2023-05-19T08:07:55;3.58;;;3.05;;
66163;SDS011;52962;51.088;3.096;2023-05-19T08:10:23;3.88;;;3.58;;
66163;SDS011;52962;51.088;3.096;2023-05-19T08:12:51;5.05;;;3.00;;
66163;SDS011;52962;51.088;3.096;2023-05-19T08:15:19;4.10;;;2.67;;
66163;SDS011;52962;51.088;3.096;2023-05-19T08:17:47;3.55;;;2.15;;
66163;SDS011;52962;51.088;3.096;2023-05-19T08:20:16;3.75;;;2.72;;
66163;SDS011;52962;51.088;3.096;2023-05-19T08:22:44;2.95;;;2.72;;
66163;SDS011;52962;51.088;3.096;2023-05-19T08:25:12;2.75;;;2.40;;
66163;SDS011;52962;51.088;3.096;2023-05-19T08:27:40;7.88;;;3.15;;
66163;SDS011;52962;51.088;3.096;2023-05-19T08:30:09;4.80;;;2.33;;
66163;SDS011;52962;51.088;3.096;2023-05-19T08:32:37;2.60;;;2.40;;
66163;SDS011;52962;51.088;3.096;2023-05-19T08:35:05;6.53;;;2.30;;
66163;SDS011;52962;51.088;3.096;2023-05-19T08:37:35;2.80;;;2.58;;
66163;SDS011;52962;51.088;3.096;2023-05-19T08:40:04;4.60;;;3.17;;
66163;SDS011;52962;51.088;3.096;2023-05-19T08:42:32;3.90;;;3.00;;
66163;SDS011;52962;51.088;3.096;2023-05-19T08:45:00;7.97;;;2.85;;
66163;SDS011;52962;51.088;3.096;2023-05-19T08:47:28;2.35;;;2.15;;
66163;SDS011;52962;51.088;3.096;2023-05-19T08:52:26;5.90;;;2.42;;
66163;SDS011;52962;51.088;3.096;2023-05-19T08:54:59;3.88;;;2.40;;
66163;SDS011;52962;51.088;3.096;2023-05-19T08:57:30;3.25;;;2.38;;
66163;SDS011;52962;51.088;3.096;2023-05-19T08:59:58;5.55;;;3.10;;
66163;SDS011;52962;51.088;3.096;2023-05-19T09:02:26;5.57;;;3.63;;
66163;SDS011;52962;51.088;3.096;2023-05-19T09:04:54;4.47;;;2.50;;
66163;SDS011;52962;51.088;3.096;2023-05-19T09:07:23;3.13;;;2.50;;
66163;SDS011;52962;51.088;3.096;2023-05-19T09:09:52;7.70;;;2.17;;
66163;SDS011;52962;51.088;3.096;2023-05-19T09:14:49;3.75;;;2.50;;
66163;SDS011;52962;51.088;3.096;2023-05-19T09:17:17;3.95;;;2.30;;
66163;SDS011;52962;51.088;3.096;2023-05-19T09:19:45;2.72;;;2.13;;
66163;SDS011;52962;51.088;3.096;2023-05-19T09:22:14;4.03;;;2.03;;
66163;SDS011;52962;51.088;3.096;2023-05-19T09:24:44;2.75;;;2.55;;
66163;SDS011;52962;51.088;3.096;2023-05-19T09:27:13;2.78;;;2.10;;
66163;SDS011;52962;51.088;3.096;2023-05-19T09:29:41;5.38;;;2.80;;
66163;SDS011;52962;51.088;3.096;2023-05-19T09:32:11;2.90;;;2.42;;
66163;SDS011;52962;51.088;3.096;2023-05-19T09:34:39;2.10;;;1.90;;
66163;SDS011;52962;51.088;3.096;2023-05-19T09:37:07;4.40;;;2.30;;
66163;SDS011;52962;51.088;3.096;2023-05-19T09:39:35;2.75;;;2.55;;
66163;SDS011;52962;51.088;3.096;2023-05-19T09:42:05;5.43;;;2.25;;
66163;SDS011;52962;51.088;3.096;2023-05-19T09:44:33;3.03;;;1.95;;
66163;SDS011;52962;51.088;3.096;2023-05-19T09:47:02;2.95;;;1.63;;
66163;SDS011;52962;51.088;3.096;2023-05-19T09:49:31;4.05;;;2.20;;
66163;SDS011;52962;51.088;3.096;2023-05-19T09:52:01;3.65;;;1.75;;
66163;SDS011;52962;51.088;3.096;2023-05-19T09:54:29;4.30;;;1.92;;
66163;SDS011;52962;51.088;3.096;2023-05-19T09:56:58;2.25;;;1.80;;
66163;SDS011;52962;51.088;3.096;2023-05-19T09:59:27;3.95;;;2.05;;
66163;SDS011;52962;51.088;3.096;2023-05-19T10:01:58;1.60;;;1.50;;
66163;SDS011;52962;51.088;3.096;2023-05-19T10:04:27;4.20;;;1.83;;
66163;SDS011;52962;51.088;3.096;2023-05-19T10:06:57;8.93;;;2.85;;
66163;SDS011;52962;51.088;3.096;2023-05-19T10:09:26;4.32;;;1.70;;
66163;SDS011;52962;51.088;3.096;2023-05-19T10:11:54;4.97;;;2.40;;
66163;SDS011;52962;51.088;3.096;2023-05-19T10:14:23;2.80;;;1.85;;
66163;SDS011;52962;51.088;3.096;2023-05-19T10:16:51;2.97;;;2.03;;
66163;SDS011;52962;51.088;3.096;2023-05-19T10:19:20;5.20;;;3.08;;
66163;SDS011;52962;51.088;3.096;2023-05-19T10:21:48;7.22;;;2.35;;
66163;SDS011;52962;51.088;3.096;2023-05-19T10:24:20;4.53;;;2.10;;
66163;SDS011;52962;51.088;3.096;2023-05-19T10:26:50;4.05;;;1.90;;
66163;SDS011;52962;51.088;3.096;2023-05-19T10:29:20;3.22;;;2.35;;
66163;SDS011;52962;51.088;3.096;2023-05-19T10:31:49;4.90;;;2.35;;
66163;SDS011;52962;51.088;3.096;2023-05-19T10:34:22;2.13;;;1.83;;
66163;SDS011;52962;51.088;3.096;2023-05-19T10:36:55;3.08;;;2.10;;
66163;SDS011;52962;51.088;3.096;2023-05-19T10:39:28;2.63;;;2.33;;
66163;SDS011;52962;51.088;3.096;2023-05-19T10:42:00;3.30;;;2.03;;
66163;SDS011;52962;51.088;3.096;2023-05-19T10:46:58;2.42;;;1.98;;
66163;SDS011;52962;51.088;3.096;2023-05-19T10:49:26;4.53;;;2.20;;
66163;SDS011;52962;51.088;3.096;2023-05-19T10:54:40;1.83;;;1.70;;
66163;SDS011;52962;51.088;3.096;2023-05-19T10:57:12;5.85;;;2.00;;
66163;SDS011;52962;51.088;3.096;2023-05-19T10:59:40;2.10;;;1.83;;
66163;SDS011;52962;51.088;3.096;2023-05-19T11:02:10;1.95;;;1.85;;
66163;SDS011;52962;51.088;3.096;2023-05-19T11:05:05;2.60;;;2.00;;
66163;SDS011;52962;51.088;3.096;2023-05-19T11:07:34;3.47;;;2.22;;
66163;SDS011;52962;51.088;3.096;2023-05-19T11:10:07;5.15;;;2.08;;
66163;SDS011;52962;51.088;3.096;2023-05-19T11:12:38;4.38;;;2.42;;
66163;SDS011;52962;51.088;3.096;2023-05-19T11:15:09;4.43;;;2.15;;
66163;SDS011;52962;51.088;3.096;2023-05-19T11:17:38;2.35;;;2.10;;
66163;SDS011;52962;51.088;3.096;2023-05-19T11:20:07;2.95;;;2.35;;
66163;SDS011;52962;51.088;3.096;2023-05-19T11:22:35;3.38;;;2.38;;
66163;SDS011;52962;51.088;3.096;2023-05-19T11:25:04;5.93;;;2.78;;
66163;SDS011;52962;51.088;3.096;2023-05-19T11:27:34;3.42;;;2.35;;
66163;SDS011;52962;51.088;3.096;2023-05-19T11:30:07;3.90;;;2.33;;
66163;SDS011;52962;51.088;3.096;2023-05-19T11:32:39;3.90;;;2.60;;
66163;SDS011;52962;51.088;3.096;2023-05-19T11:35:09;4.68;;;2.78;;
66163;SDS011;52962;51.088;3.096;2023-05-19T11:37:37;2.90;;;2.53;;
66163;SDS011;52962;51.088;3.096;2023-05-19T11:40:07;3.17;;;2.83;;
66163;SDS011;52962;51.088;3.096;2023-05-19T11:42:36;2.25;;;2.03;;
66163;SDS011;52962;51.088;3.096;2023-05-19T11:45:05;5.32;;;3.08;;
66163;SDS011;52962;51.088;3.096;2023-05-19T11:47:33;3.80;;;2.88;;
66163;SDS011;52962;51.088;3.096;2023-05-19T11:50:21;2.10;;;1.83;;
66163;SDS011;52962;51.088;3.096;2023-05-19T11:52:49;6.25;;;2.47;;
66163;SDS011;52962;51.088;3.096;2023-05-19T11:57:56;2.72;;;2.15;;
66163;SDS011;52962;51.088;3.096;2023-05-19T12:00:28;3.55;;;2.92;;
66163;SDS011;52962;51.088;3.096;2023-05-19T12:02:56;3.33;;;2.38;;
66163;SDS011;52962;51.088;3.096;2023-05-19T12:07:52;6.57;;;2.70;;
66163;SDS011;52962;51.088;3.096;2023-05-19T12:10:20;2.25;;;1.90;;
66163;SDS011;52962;51.088;3.096;2023-05-19T12:12:48;4.20;;;2.80;;
66163;SDS011;52962;51.088;3.096;2023-05-19T12:15:19;4.50;;;2.15;;
66163;SDS011;52962;51.088;3.096;2023-05-19T12:17:48;4.18;;;1.92;;
66163;SDS011;52962;51.088;3.096;2023-05-19T12:20:16;2.78;;;2.25;;
66163;SDS011;52962;51.088;3.096;2023-05-19T12:22:45;2.50;;;2.03;;
66163;SDS011;52962;51.088;3.096;2023-05-19T12:25:13;3.38;;;2.13;;
66163;SDS011;52962;51.088;3.096;2023-05-19T12:27:41;3.83;;;2.17;;
66163;SDS011;52962;51.088;3.096;2023-05-19T12:32:39;2.38;;;1.92;;
66163;SDS011;52962;51.088;3.096;2023-05-19T12:35:07;2.90;;;2.22;;
66163;SDS011;52962;51.088;3.096;2023-05-19T12:37:36;6.35;;;2.70;;
66163;SDS011;52962;51.088;3.096;2023-05-19T12:40:08;3.10;;;2.50;;
66163;SDS011;52962;51.088;3.096;2023-05-19T12:42:36;5.28;;;2.55;;
66163;SDS011;52962;51.088;3.096;2023-05-19T12:47:32;3.25;;;1.73;;
66163;SDS011;52962;51.088;3.096;2023-05-19T12:50:02;5.22;;;2.47;;
66163;SDS011;52962;51.088;3.096;2023-05-19T12:52:32;3.72;;;2.33;;
66163;SDS011;52962;51.088;3.096;2023-05-19T12:55:01;8.10;;;2.53;;
66163;SDS011;52962;51.088;3.096;2023-05-19T12:57:30;6.18;;;2.90;;
66163;SDS011;52962;51.088;3.096;2023-05-19T13:00:01;3.55;;;2.40;;
66163;SDS011;52962;51.088;3.096;2023-05-19T13:02:33;3.60;;;2.42;;
66163;SDS011;52962;51.088;3.096;2023-05-19T13:05:03;3.90;;;2.83;;
66163;SDS011;52962;51.088;3.096;2023-05-19T13:07:31;4.32;;;2.95;;
66163;SDS011;52962;51.088;3.096;2023-05-19T13:09:59;4.85;;;2.63;;
66163;SDS011;52962;51.088;3.096;2023-05-19T13:12:27;3.90;;;3.05;;
66163;SDS011;52962;51.088;3.096;2023-05-19T13:14:54;5.07;;;2.85;;
66163;SDS011;52962;51.088;3.096;2023-05-19T13:19:50;3.88;;;2.92;;
66163;SDS011;52962;51.088;3.096;2023-05-19T13:22:21;5.53;;;3.40;;
66163;SDS011;52962;51.088;3.096;2023-05-19T13:24:49;6.43;;;3.42;;
66163;SDS011;52962;51.088;3.096;2023-05-19T13:27:18;5.18;;;3.70;;
66163;SDS011;52962;51.088;3.096;2023-05-19T13:29:46;4.07;;;3.72;;
66163;SDS011;52962;51.088;3.096;2023-05-19T13:32:14;6.38;;;2.55;;
66163;SDS011;52962;51.088;3.096;2023-05-19T13:37:10;3.25;;;1.88;;
66163;SDS011;52962;51.088;3.096;2023-05-19T13:39:39;5.28;;;3.22;;
66163;SDS011;52962;51.088;3.096;2023-05-19T13:42:07;9.07;;;3.05;;
66163;SDS011;52962;51.088;3.096;2023-05-19T13:47:03;3.78;;;3.00;;
66163;SDS011;52962;51.088;3.096;2023-05-19T13:49:31;3.78;;;3.05;;
66163;SDS011;52962;51.088;3.096;2023-05-19T13:51:59;5.90;;;2.85;;
66163;SDS011;52962;51.088;3.096;2023-05-19T13:54:27;4.97;;;2.30;;
66163;SDS011;52962;51.088;3.096;2023-05-19T13:56:56;6.43;;;3.47;;
66163;SDS011;52962;51.088;3.096;2023-05-19T13:59:24;4.03;;;2.83;;
66163;SDS011;52962;51.088;3.096;2023-05-19T14:04:20;5.10;;;3.28;;
66163;SDS011;52962;51.088;3.096;2023-05-19T14:06:49;3.35;;;2.65;;
66163;SDS011;52962;51.088;3.096;2023-05-19T14:09:17;6.05;;;3.38;;
66163;SDS011;52962;51.088;3.096;2023-05-19T14:11:45;4.55;;;2.35;;
66163;SDS011;52962;51.088;3.096;2023-05-19T14:14:14;3.38;;;2.47;;
66163;SDS011;52962;51.088;3.096;2023-05-19T14:16:43;3.22;;;2.75;;
66163;SDS011;52962;51.088;3.096;2023-05-19T14:19:10;5.75;;;2.90;;
66163;SDS011;52962;51.088;3.096;2023-05-19T14:21:38;7.68;;;3.15;;
66163;SDS011;52962;51.088;3.096;2023-05-19T14:26:34;1.58;;;1.35;;
66163;SDS011;52962;51.088;3.096;2023-05-19T14:29:02;5.32;;;3.05;;
66163;SDS011;52962;51.088;3.096;2023-05-19T14:33:59;4.05;;;2.45;;
66163;SDS011;52962;51.088;3.096;2023-05-19T14:36:27;4.68;;;2.70;;
66163;SDS011;52962;51.088;3.096;2023-05-19T14:38:55;3.47;;;2.17;;
66163;SDS011;52962;51.088;3.096;2023-05-19T14:41:23;5.90;;;3.03;;
66163;SDS011;52962;51.088;3.096;2023-05-19T14:43:51;6.95;;;3.08;;
66163;SDS011;52962;51.088;3.096;2023-05-19T14:46:19;2.47;;;2.13;;
66163;SDS011;52962;51.088;3.096;2023-05-19T14:48:47;6.00;;;2.90;;
66163;SDS011;52962;51.088;3.096;2023-05-19T14:51:16;3.33;;;2.40;;
66163;SDS011;52962;51.088;3.096;2023-05-19T14:53:44;5.38;;;2.00;;
66163;SDS011;52962;51.088;3.096;2023-05-19T14:56:12;2.70;;;2.22;;
66163;SDS011;52962;51.088;3.096;2023-05-19T14:58:40;4.38;;;2.22;;
66163;SDS011;52962;51.088;3.096;2023-05-19T15:01:08;3.00;;;2.00;;
66163;SDS011;52962;51.088;3.096;2023-05-19T15:03:36;4.75;;;2.83;;
66163;SDS011;52962;51.088;3.096;2023-05-19T15:06:06;6.60;;;2.72;;
66163;SDS011;52962;51.088;3.096;2023-05-19T15:08:36;6.18;;;2.72;;
66163;SDS011;52962;51.088;3.096;2023-05-19T15:11:06;7.38;;;2.70;;
66163;SDS011;52962;51.088;3.096;2023-05-19T15:13:34;5.72;;;2.85;;
66163;SDS011;52962;51.088;3.096;2023-05-19T15:16:02;6.35;;;2.78;;
66163;SDS011;52962;51.088;3.096;2023-05-19T15:18:42;6.43;;;2.75;;
66163;SDS011;52962;51.088;3.096;2023-05-19T15:23:39;7.15;;;2.38;;
66163;SDS011;52962;51.088;3.096;2023-05-19T15:26:07;3.50;;;2.03;;
66163;SDS011;52962;51.088;3.096;2023-05-19T15:31:03;3.80;;;1.95;;
66163;SDS011;52962;51.088;3.096;2023-05-19T15:35:58;2.38;;;1.73;;
66163;SDS011;52962;51.088;3.096;2023-05-19T15:38:26;6.95;;;2.38;;
66163;SDS011;52962;51.088;3.096;2023-05-19T15:40:57;3.17;;;1.75;;
66163;SDS011;52962;51.088;3.096;2023-05-19T15:43:25;2.50;;;2.10;;
66163;SDS011;52962;51.088;3.096;2023-05-19T15:45:53;4.88;;;2.92;;
66163;SDS011;52962;51.088;3.096;2023-05-19T15:48:21;2.65;;;1.95;;
66163;SDS011;52962;51.088;3.096;2023-05-19T15:50:49;3.90;;;2.30;;
66163;SDS011;52962;51.088;3.096;2023-05-19T15:55:45;4.07;;;2.30;;
66163;SDS011;52962;51.088;3.096;2023-05-19T15:58:14;6.45;;;2.72;;
66163;SDS011;52962;51.088;3.096;2023-05-19T16:00:43;4.95;;;2.10;;